Time;durP1;ratioP1;P1;durP2;ratioP2;P2;SDS_P1;SDS_P2;PMS_P1;PMS_P2;Temp;Humidity;BMP_temperature;BMP_pressure;BME280_temperature;BME280_humidity;BME280_pressure;Samples;Min_cycle;Max_cycle;Signal;HPM_P1;HPM_P2
2021/08/16 00:00:59;;;;;;;19.73;6.10;;;;;;;17.57;75.20;100919.44;5084719;28;20249;-76
2021/08/16 00:03:26;;;;;;;18.73;6.17;;;;;;;17.50;75.74;100923.44;5085495;28;20810;-76
2021/08/16 00:05:52;;;;;;;15.87;6.30;;;;;;;17.60;75.46;100913.47;5084111;28;20234;-76
2021/08/16 00:08:19;;;;;;;17.70;6.70;;;;;;;17.71;74.46;100910.84;5082366;28;20689;-76
2021/08/16 00:10:46;;;;;;;19.23;6.17;;;;;;;17.49;75.51;100911.03;5081617;28;20218;-76
2021/08/16 00:13:13;;;;;;;17.47;5.60;;;;;;;17.67;74.87;100902.44;5080323;28;20210;-76
2021/08/16 00:15:40;;;;;;;14.87;5.90;;;;;;;17.56;75.46;100914.28;5081719;28;20662;-76
2021/08/16 00:18:06;;;;;;;15.23;5.77;;;;;;;17.51;75.20;100917.78;5083327;28;20210;-76
2021/08/16 00:20:33;;;;;;;22.17;6.67;;;;;;;17.66;74.74;100914.31;5082763;28;20329;-76
2021/08/16 00:22:59;;;;;;;18.13;6.13;;;;;;;17.41;75.76;100914.28;5081925;28;20214;-76
2021/08/16 00:25:26;;;;;;;25.40;7.30;;;;;;;17.37;76.03;100908.56;5082969;28;20224;-76
2021/08/16 00:27:54;;;;;;;25.00;7.50;;;;;;;17.45;75.93;100907.25;5083354;28;20210;-76
2021/08/16 00:30:20;;;;;;;20.33;6.70;;;;;;;17.48;75.81;100901.31;5083166;28;20744;-76
2021/08/16 00:32:49;;;;;;;23.07;6.17;;;;;;;17.45;76.10;100899.13;5083614;28;20215;-76
2021/08/16 00:35:15;;;;;;;23.10;7.23;;;;;;;17.57;75.66;100891.59;5083212;28;20275;-76
2021/08/16 00:37:42;;;;;;;27.10;7.83;;;;;;;17.65;75.64;100897.25;5084925;28;20215;-76
2021/08/16 00:40:09;;;;;;;24.23;6.37;;;;;;;17.40;76.65;100896.41;5084433;28;20215;-76
2021/08/16 00:42:36;;;;;;;19.23;6.77;;;;;;;17.58;76.19;100887.81;5081785;28;20286;-76
2021/08/16 00:45:07;;;;;;;18.77;7.27;;;;;;;17.38;76.96;100890.47;5081206;28;20584;-76
2021/08/16 00:47:33;;;;;;;18.47;7.23;;;;;;;17.27;77.88;100889.63;5083922;28;20209;-76
2021/08/16 00:50:00;;;;;;;24.47;8.30;;;;;;;17.08;78.79;100892.00;5081289;28;20709;-76
2021/08/16 00:52:27;;;;;;;25.97;8.20;;;;;;;17.34;77.94;100890.19;5083987;28;20238;-76
2021/08/16 00:54:54;;;;;;;26.27;8.53;;;;;;;17.37;77.81;100889.66;5082504;28;20537;-76
2021/08/16 00:57:21;;;;;;;26.10;7.87;;;;;;;17.58;76.79;100885.13;5083973;28;21123;-76
2021/08/16 00:59:47;;;;;;;25.70;7.37;;;;;;;17.52;77.32;100883.47;5083288;28;20242;-76
2021/08/16 01:02:15;;;;;;;22.60;7.93;;;;;;;17.54;77.50;100878.63;5080457;28;20283;-76
2021/08/16 01:04:42;;;;;;;25.13;8.50;;;;;;;17.80;76.24;100893.00;5083469;28;20292;-76
2021/08/16 01:07:08;;;;;;;22.33;8.57;;;;;;;17.76;76.84;100890.03;5081052;28;20279;-76
2021/08/16 01:09:34;;;;;;;25.73;8.37;;;;;;;17.97;75.95;100887.34;5083058;28;20246;-76
2021/08/16 01:12:01;;;;;;;24.40;7.70;;;;;;;17.85;76.76;100882.19;5081023;28;20244;-76
2021/08/16 01:14:27;;;;;;;22.23;7.83;;;;;;;17.43;78.42;100885.09;5082835;28;20244;-76
2021/08/16 01:16:54;;;;;;;25.97;8.37;;;;;;;17.54;78.45;100881.34;5082239;28;20212;-76
2021/08/16 01:19:22;;;;;;;32.23;9.00;;;;;;;17.54;78.29;100875.94;5084909;28;20710;-76
2021/08/16 01:21:48;;;;;;;21.03;8.30;;;;;;;17.68;77.74;100879.72;5082449;28;20210;-76
2021/08/16 01:24:15;;;;;;;26.40;8.03;;;;;;;17.50;78.64;100877.53;5084249;28;20272;-76
2021/08/16 01:26:43;;;;;;;22.87;7.97;;;;;;;17.54;78.44;100876.75;5080954;28;20715;-76
2021/08/16 01:29:16;;;;;;;23.37;7.60;;;;;;;17.49;78.69;100886.72;5083173;28;20336;-75
2021/08/16 01:31:43;;;;;;;26.20;8.50;;;;;;;17.64;78.09;100882.13;5083568;28;20293;-76
2021/08/16 01:34:09;;;;;;;23.43;8.40;;;;;;;17.66;78.13;100881.91;5084217;28;20219;-76
2021/08/16 01:36:35;;;;;;;31.43;8.53;;;;;;;17.72;77.95;100885.44;5085956;28;20228;-76
2021/08/16 01:39:02;;;;;;;31.40;9.20;;;;;;;17.71;77.98;100884.63;5081634;28;20208;-76
2021/08/16 01:41:28;;;;;;;25.00;7.73;;;;;;;17.64;78.46;100884.03;5081806;28;20221;-74
2021/08/16 01:43:56;;;;;;;30.70;8.63;;;;;;;17.60;78.47;100877.53;5083638;28;20222;-74
2021/08/16 01:46:22;;;;;;;27.57;8.73;;;;;;;17.77;77.86;100877.31;5081061;28;20238;-74
2021/08/16 01:48:49;;;;;;;27.00;8.27;;;;;;;17.54;79.04;100879.44;5082516;28;20236;-74
2021/08/16 01:51:15;;;;;;;23.17;8.20;;;;;;;17.50;79.05;100875.63;5080731;28;20289;-74
2021/08/16 01:53:42;;;;;;;23.90;8.93;;;;;;;17.68;78.49;100878.91;5084473;28;20260;-74
2021/08/16 01:56:08;;;;;;;28.00;7.93;;;;;;;17.74;78.14;100889.47;5084804;28;20655;-74
2021/08/16 01:58:34;;;;;;;28.53;8.43;;;;;;;17.94;77.33;100883.28;5086202;28;20271;-74
2021/08/16 02:01:02;;;;;;;27.40;8.10;;;;;;;18.19;76.57;100874.34;5086905;28;20694;-74
2021/08/16 02:03:29;;;;;;;26.00;8.07;;;;;;;18.12;76.68;100880.00;5087029;28;20211;-74
2021/08/16 02:05:55;;;;;;;26.27;7.50;;;;;;;18.14;76.70;100877.84;5085008;28;20235;-74
2021/08/16 02:08:22;;;;;;;24.90;7.97;;;;;;;18.24;76.11;100879.72;5089616;28;20269;-74
2021/08/16 02:10:48;;;;;;;25.83;7.87;;;;;;;18.17;76.51;100876.50;5086480;28;20240;-74
2021/08/16 02:13:14;;;;;;;29.67;8.50;;;;;;;18.26;76.06;100882.16;5085709;28;20649;-74
2021/08/16 02:15:41;;;;;;;27.30;7.53;;;;;;;18.10;76.99;100878.66;5087017;28;20215;-74
2021/08/16 02:18:09;;;;;;;32.33;9.30;;;;;;;18.11;77.00;100880.28;5085202;28;20412;-74
2021/08/16 02:20:35;;;;;;;19.13;7.43;;;;;;;18.39;75.90;100870.78;5084471;28;20232;-74
2021/08/16 02:23:02;;;;;;;28.30;8.30;;;;;;;18.34;75.78;100879.72;5084864;28;20225;-74
2021/08/16 02:25:28;;;;;;;23.70;7.80;;;;;;;18.27;76.47;100871.06;5083981;28;20294;-74
2021/08/16 02:27:55;;;;;;;27.53;7.93;;;;;;;18.46;75.64;100874.03;5084792;28;20216;-74
2021/08/16 02:30:21;;;;;;;21.83;7.90;;;;;;;18.34;75.95;100876.22;5085739;28;20698;-74
2021/08/16 02:32:48;;;;;;;31.60;9.17;;;;;;;18.44;75.72;100873.50;5084023;28;20645;-74
2021/08/16 02:35:16;;;;;;;20.30;7.40;;;;;;;18.25;76.21;100884.06;5084258;28;20239;-74
2021/08/16 02:37:43;;;;;;;21.60;7.50;;;;;;;18.26;76.36;100880.25;5083917;28;20207;-74
2021/08/16 02:40:11;;;;;;;26.70;7.87;;;;;;;18.29;76.79;100885.13;5083954;28;20220;-74
2021/08/16 02:42:38;;;;;;;22.87;7.37;;;;;;;18.16;77.25;100870.28;5084237;28;20277;-74
2021/08/16 02:45:05;;;;;;;23.90;8.43;;;;;;;18.45;75.96;100875.91;5083361;28;20874;-74
2021/08/16 02:47:32;;;;;;;23.03;8.10;;;;;;;18.40;76.01;100875.09;5088179;28;20866;-74
2021/08/16 02:49:58;;;;;;;29.93;8.17;;;;;;;18.64;75.46;100875.34;5082578;28;20296;-74
2021/08/16 02:52:26;;;;;;;25.00;8.33;;;;;;;18.94;73.92;100875.25;5083727;28;20237;-74
2021/08/16 02:54:52;;;;;;;23.03;7.70;;;;;;;18.74;74.91;100876.13;5084242;28;20221;-75
2021/08/16 02:57:20;;;;;;;19.90;8.07;;;;;;;18.61;75.41;100878.56;5085133;28;20216;-74
2021/08/16 02:59:46;;;;;;;21.10;7.77;;;;;;;18.42;76.39;100864.81;5082670;28;20213;-74
2021/08/16 03:02:13;;;;;;;25.17;7.43;;;;;;;18.34;76.64;100871.59;5085177;28;20728;-75
2021/08/16 03:04:39;;;;;;;24.80;7.63;;;;;;;18.29;77.29;100866.19;5083032;28;20232;-75
2021/08/16 03:07:06;;;;;;;21.00;7.13;;;;;;;18.44;76.72;100868.06;5080077;28;20220;-75
2021/08/16 03:09:33;;;;;;;23.83;7.57;;;;;;;18.23;77.42;100859.19;5089219;28;20293;-75
2021/08/16 03:12:00;;;;;;;21.70;7.57;;;;;;;18.16;77.81;100862.16;5084210;28;20219;-75
2021/08/16 03:14:26;;;;;;;16.80;6.47;;;;;;;18.25;77.42;100865.13;5084735;28;20290;-75
2021/08/16 03:16:53;;;;;;;16.97;6.93;;;;;;;18.62;76.35;100863.97;5081832;28;20216;-75
2021/08/16 03:19:19;;;;;;;22.70;7.97;;;;;;;18.77;75.60;100859.31;5082825;28;20231;-75
2021/08/16 03:21:45;;;;;;;24.17;7.43;;;;;;;18.77;75.38;100858.50;5083120;28;20211;-74
2021/08/16 03:24:12;;;;;;;20.10;6.83;;;;;;;18.92;74.84;100863.06;5083403;28;20702;-74
2021/08/16 03:26:40;;;;;;;20.07;6.63;;;;;;;18.98;74.31;100853.84;5082742;28;21155;-75
2021/08/16 03:29:06;;;;;;;16.90;6.70;;;;;;;19.11;73.62;100847.81;5082061;28;20684;-75
2021/08/16 03:31:33;;;;;;;17.80;6.60;;;;;;;19.25;72.92;100851.50;5082582;28;20217;-75
2021/08/16 03:33:59;;;;;;;17.80;6.53;;;;;;;19.12;73.27;100846.72;5081187;28;20269;-75
2021/08/16 03:36:25;;;;;;;20.20;7.23;;;;;;;19.36;72.39;100846.84;5081436;28;20241;-75
2021/08/16 03:38:52;;;;;;;13.73;6.50;;;;;;;19.33;71.88;100853.63;5084280;28;20216;-75
2021/08/16 03:41:18;;;;;;;22.03;7.60;;;;;;;19.38;72.26;100850.88;5084962;28;20238;-75
2021/08/16 03:43:46;;;;;;;23.23;6.83;;;;;;;19.40;72.15;100843.28;5084183;28;20213;-75
2021/08/16 03:46:12;;;;;;;18.70;7.60;;;;;;;19.41;71.75;100836.75;5084698;28;20753;-75
2021/08/16 03:48:39;;;;;;;20.20;6.80;;;;;;;19.14;73.33;100846.44;5084410;28;20249;-75
2021/08/16 03:51:05;;;;;;;18.77;6.97;;;;;;;19.05;73.81;100840.78;5084166;28;20243;-75
2021/08/16 03:53:31;;;;;;;16.57;6.50;;;;;;;19.25;73.37;100834.44;5083537;28;20295;-75
2021/08/16 03:55:58;;;;;;;18.30;7.37;;;;;;;19.25;73.09;100826.31;5083483;28;20266;-75
2021/08/16 03:58:24;;;;;;;22.07;6.30;;;;;;;19.31;72.63;100828.72;5084676;28;20277;-75
2021/08/16 04:00:52;;;;;;;15.80;6.43;;;;;;;19.00;73.84;100830.78;5081505;28;20270;-75
2021/08/16 04:03:18;;;;;;;14.57;6.57;;;;;;;18.94;74.11;100831.13;5083751;28;20216;-75
2021/08/16 04:05:45;;;;;;;14.27;6.00;;;;;;;18.99;73.68;100823.75;5086807;28;20231;-74
2021/08/16 04:08:11;;;;;;;17.60;6.83;;;;;;;18.84;74.30;100807.59;5084101;28;20612;-74
2021/08/16 04:10:37;;;;;;;15.93;6.50;;;;;;;18.51;76.33;100807.16;5081653;28;20239;-74
2021/08/16 04:13:04;;;;;;;19.33;6.60;;;;;;;18.44;77.12;100811.25;5079992;28;20223;-74
2021/08/16 04:15:30;;;;;;;17.93;6.93;;;;;;;18.29;77.71;100817.50;5080900;28;20216;-74
2021/08/16 04:17:58;;;;;;;18.37;6.17;;;;;;;18.27;77.99;100816.16;5082052;28;20226;-74
2021/08/16 04:20:24;;;;;;;18.23;6.27;;;;;;;18.20;78.16;100825.38;5082291;28;20279;-75
2021/08/16 04:22:51;;;;;;;15.37;5.93;;;;;;;18.13;78.69;100824.84;5082391;28;20260;-75
2021/08/16 04:25:19;;;;;;;21.93;6.07;;;;;;;17.96;79.05;100824.34;5079441;28;20211;-75
2021/08/16 04:27:47;;;;;;;22.97;6.20;;;;;;;18.29;78.07;100828.31;5081414;28;20217;-75
2021/08/16 04:30:13;;;;;;;18.00;6.00;;;;;;;18.21;77.86;100820.78;5082410;28;20270;-79
2021/08/16 04:32:40;;;;;;;18.37;5.13;;;;;;;18.27;77.30;100825.09;5087016;28;20217;-79
2021/08/16 04:35:09;;;;;;;16.20;6.13;;;;;;;18.34;77.19;100822.91;5085657;28;20588;-79
2021/08/16 04:37:36;;;;;;;12.77;4.77;;;;;;;18.46;76.95;100804.50;5089545;28;20218;-79
2021/08/16 04:40:03;;;;;;;22.60;5.50;;;;;;;18.44;77.14;100813.97;5089345;28;20219;-79
2021/08/16 04:42:30;;;;;;;19.43;6.50;;;;;;;18.12;78.36;100809.72;5087673;28;20216;-80
2021/08/16 04:44:56;;;;;;;14.30;4.87;;;;;;;18.36;77.48;100787.47;5088735;28;20243;-80
2021/08/16 04:47:23;;;;;;;20.50;5.80;;;;;;;18.31;77.27;100811.84;5085095;28;20250;-79
2021/08/16 04:49:49;;;;;;;18.93;6.10;;;;;;;18.46;77.83;100804.50;5084622;28;20236;-79
2021/08/16 04:52:19;;;;;;;20.30;6.07;;;;;;;18.17;79.56;100807.00;5088036;28;20245;-81
2021/08/16 04:54:46;;;;;;;17.43;6.17;;;;;;;18.26;79.40;100803.72;5088742;28;20228;-78
2021/08/16 04:57:12;;;;;;;19.70;5.70;;;;;;;17.80;80.60;100795.72;5084968;28;20608;-77
2021/08/16 04:59:39;;;;;;;19.90;5.77;;;;;;;17.88;80.57;100787.84;5084300;28;21163;-78
2021/08/16 05:02:05;;;;;;;19.37;5.13;;;;;;;17.49;81.72;100792.16;5082084;28;21038;-78
2021/08/16 05:04:32;;;;;;;16.23;5.70;;;;;;;17.46;83.23;100792.72;5085152;28;20281;-78
2021/08/16 05:06:58;;;;;;;19.40;6.57;;;;;;;17.72;82.78;100805.16;5084116;28;20215;-78
2021/08/16 05:09:26;;;;;;;16.13;5.93;;;;;;;17.39;83.25;100803.78;5083212;28;20211;-76
2021/08/16 05:11:52;;;;;;;19.13;6.47;;;;;;;17.36;83.57;100802.44;5080322;28;20279;-74
2021/08/16 05:14:18;;;;;;;20.70;7.57;;;;;;;17.07;84.95;100806.72;5083798;28;20223;-76
2021/08/16 05:16:45;;;;;;;17.03;6.77;;;;;;;16.85;85.90;100812.31;5082953;28;20235;-76
2021/08/16 05:19:11;;;;;;;15.83;6.20;;;;;;;16.75;86.43;100814.97;5083657;28;20676;-76
2021/08/16 05:21:38;;;;;;;14.30;6.07;;;;;;;16.71;86.67;100817.38;5083793;28;20235;-77
2021/08/16 05:24:04;;;;;;;15.40;7.13;;;;;;;16.81;86.67;100832.81;5081158;28;20729;-76
2021/08/16 05:26:32;;;;;;;12.60;6.70;;;;;;;16.74;86.98;100826.84;5082284;28;20358;-77
2021/08/16 05:28:59;;;;;;;9.17;6.00;;;;;;;16.64;87.20;100816.81;5086385;28;20214;-79
2021/08/16 05:31:26;;;;;;;6.80;5.10;;;;;;;16.58;87.32;100831.31;5085144;28;20786;-77
2021/08/16 05:33:53;;;;;;;10.00;5.53;;;;;;;16.66;87.08;100821.94;5086875;28;20241;-77
2021/08/16 05:36:19;;;;;;;6.43;3.60;;;;;;;16.69;86.47;100841.13;5087248;28;20232;-77
2021/08/16 05:38:47;;;;;;;6.30;5.03;;;;;;;16.90;86.07;100831.22;5085898;28;20213;-77
2021/08/16 05:41:14;;;;;;;6.30;5.70;;;;;;;16.92;86.27;100834.47;5084857;28;20239;-77
2021/08/16 05:43:42;;;;;;;7.33;5.30;;;;;;;17.02;85.69;100829.09;5087610;28;20217;-78
2021/08/16 05:46:08;;;;;;;8.90;5.33;;;;;;;16.98;85.36;100838.78;5086277;28;20240;-77
2021/08/16 05:48:35;;;;;;;5.93;4.60;;;;;;;16.97;85.48;100837.16;5088999;28;20703;-77
2021/08/16 05:51:01;;;;;;;6.10;4.73;;;;;;;16.95;85.83;100842.03;5087407;28;20750;-79
2021/08/16 05:53:27;;;;;;;8.53;4.83;;;;;;;17.08;84.55;100854.22;5088325;28;20226;-78
2021/08/16 05:55:54;;;;;;;4.73;4.03;;;;;;;17.02;84.96;100850.72;5092197;28;20217;-78
2021/08/16 05:58:20;;;;;;;7.23;4.43;;;;;;;17.04;83.98;100856.66;5089197;28;20210;-80
2021/08/16 06:00:48;;;;;;;6.27;4.90;;;;;;;17.01;84.78;100843.66;5092007;28;20219;-80
2021/08/16 06:03:14;;;;;;;6.87;5.30;;;;;;;16.92;83.33;100849.84;5090877;28;20207;-80
2021/08/16 06:05:41;;;;;;;8.27;5.33;;;;;;;16.86;83.74;100859.00;5094538;28;20692;-79
2021/08/16 06:08:07;;;;;;;7.37;5.20;;;;;;;16.77;83.61;100856.81;5089274;28;20261;-79
2021/08/16 06:10:34;;;;;;;11.50;6.23;;;;;;;16.71;84.55;100878.63;5090986;28;20242;-78
2021/08/16 06:13:00;;;;;;;10.67;6.17;;;;;;;16.25;86.37;100875.63;5088622;28;20214;-79
2021/08/16 06:15:27;;;;;;;3.43;3.13;;;;;;;15.99;85.10;100865.72;5085437;28;20209;-78
2021/08/16 06:17:54;;;;;;;3.67;2.40;;;;;;;15.83;84.52;100875.59;5087625;28;20213;-78
2021/08/16 06:20:21;;;;;;;2.43;1.93;;;;;;;15.88;83.84;100867.56;5089290;28;20676;-78
2021/08/16 06:22:48;;;;;;;3.37;2.10;;;;;;;15.97;84.31;100867.88;5088335;28;20648;-78
2021/08/16 06:25:14;;;;;;;2.53;2.13;;;;;;;16.05;84.15;100868.22;5088953;28;20223;-78
2021/08/16 06:27:41;;;;;;;3.87;2.67;;;;;;;16.16;84.24;100861.03;5090942;28;20240;-79
2021/08/16 06:30:08;;;;;;;7.03;2.80;;;;;;;16.24;84.09;100871.31;5088944;28;20218;-79
2021/08/16 06:32:35;;;;;;;4.93;2.50;;;;;;;16.37;83.42;100868.16;5090798;28;20257;-80
2021/08/16 06:35:03;;;;;;;6.00;2.80;;;;;;;16.42;82.05;100873.59;5088666;28;20291;-79
2021/08/16 06:37:30;;;;;;;9.60;3.47;;;;;;;16.40;81.48;100873.06;5088203;28;20207;-81
2021/08/16 06:39:57;;;;;;;6.90;3.00;;;;;;;16.37;81.70;100881.63;5091202;28;20217;-80
2021/08/16 06:42:24;;;;;;;3.93;2.33;;;;;;;16.37;81.32;100873.53;5088621;28;20206;-80
2021/08/16 06:44:50;;;;;;;6.97;3.07;;;;;;;16.32;80.37;100872.72;5088482;28;20240;-81
2021/08/16 06:47:17;;;;;;;6.57;2.70;;;;;;;16.46;79.70;100885.47;5087347;28;20266;-81
2021/08/16 06:49:44;;;;;;;5.47;2.50;;;;;;;16.41;79.94;100884.66;5089474;28;20602;-81
2021/08/16 06:52:11;;;;;;;10.57;2.90;;;;;;;16.55;80.37;100874.22;5092601;28;20230;-80
2021/08/16 06:54:38;;;;;;;6.93;2.57;;;;;;;16.54;79.60;100886.06;5093546;28;20217;-81
2021/08/16 06:57:05;;;;;;;6.67;3.17;;;;;;;16.63;79.93;100888.00;5088741;28;20224;-81
2021/08/16 06:59:33;;;;;;;6.53;2.70;;;;;;;16.65;78.64;100898.53;5090926;28;20207;-80
2021/08/16 07:01:59;;;;;;;4.90;2.37;;;;;;;16.62;79.75;100901.75;5089278;28;20258;-81
2021/08/16 07:04:26;;;;;;;7.40;3.17;;;;;;;16.63;79.03;100906.88;5088925;28;20648;-81
2021/08/16 07:06:52;;;;;;;5.97;2.53;;;;;;;16.60;78.28;100909.28;5087216;28;20245;-82
2021/08/16 07:09:20;;;;;;;11.03;2.60;;;;;;;16.61;77.93;100913.59;5087864;28;20217;-81
2021/08/16 07:11:46;;;;;;;5.57;2.50;;;;;;;16.60;76.65;100907.41;5091176;28;20240;-80
2021/08/16 07:14:13;;;;;;;6.17;2.87;;;;;;;16.64;77.43;100913.91;5090289;28;20201;-82
2021/08/16 07:16:39;;;;;;;5.73;3.20;;;;;;;16.57;77.14;100918.72;5095611;28;20202;-80
2021/08/16 07:19:06;;;;;;;7.27;3.23;;;;;;;16.66;77.36;100925.25;5090309;28;20194;-82
2021/08/16 07:21:32;;;;;;;9.13;3.27;;;;;;;16.69;76.06;100919.38;5092319;28;20244;-82
2021/08/16 07:23:59;;;;;;;7.27;4.00;;;;;;;16.65;76.35;100926.34;5087960;28;20974;-80
2021/08/16 07:26:27;;;;;;;5.93;3.10;;;;;;;16.85;76.25;100927.53;5089250;28;20294;-81
2021/08/16 07:28:53;;;;;;;5.87;3.07;;;;;;;17.05;74.65;100924.94;5090319;28;20214;-81
2021/08/16 07:31:20;;;;;;;7.03;3.43;;;;;;;17.23;74.46;100927.16;5088598;28;20306;-82
2021/08/16 07:33:46;;;;;;;9.13;2.77;;;;;;;17.51;72.42;100925.06;5088916;28;20221;-81
2021/08/16 07:36:13;;;;;;;9.83;3.50;;;;;;;17.32;73.60;100928.28;5092293;28;20227;-81
2021/08/16 07:38:41;;;;;;;7.90;2.63;;;;;;;17.21;72.06;100932.00;5092517;28;20271;-80
2021/08/16 07:41:07;;;;;;;6.87;2.73;;;;;;;17.24;72.35;100930.66;5089669;28;20212;-82
2021/08/16 07:43:35;;;;;;;6.20;3.47;;;;;;;17.21;71.86;100936.59;5087977;28;20240;-81
2021/08/16 07:46:03;;;;;;;6.07;3.10;;;;;;;17.36;72.06;100932.06;5090092;28;20257;-81
2021/08/16 07:48:29;;;;;;;9.17;3.23;;;;;;;17.34;71.11;100928.00;5091722;28;20227;-79
2021/08/16 07:50:56;;;;;;;3.73;3.00;;;;;;;17.08;71.31;100945.19;5087161;28;20242;-80
2021/08/16 07:53:22;;;;;;;8.93;3.80;;;;;;;17.03;72.63;100937.91;5090835;28;20225;-80
2021/08/16 07:55:48;;;;;;;7.57;3.50;;;;;;;17.19;71.85;100944.97;5088591;28;20222;-81
2021/08/16 07:58:15;;;;;;;5.33;3.50;;;;;;;17.38;71.57;100955.28;5091185;28;20221;-79
2021/08/16 08:00:43;;;;;;;9.53;3.37;;;;;;;17.19;71.05;100953.06;5089702;28;20231;-80
2021/08/16 08:03:09;;;;;;;6.97;3.93;;;;;;;17.26;71.79;100952.81;5092883;28;20245;-79
2021/08/16 08:05:36;;;;;;;7.67;2.83;;;;;;;17.32;69.75;100952.59;5090093;28;20237;-79
2021/08/16 08:08:02;;;;;;;8.13;3.40;;;;;;;17.17;70.54;100952.53;5092081;28;20260;-78
2021/08/16 08:10:29;;;;;;;6.37;3.17;;;;;;;17.29;70.20;100976.63;5090296;28;20736;-81
2021/08/16 08:12:57;;;;;;;6.67;3.37;;;;;;;17.28;71.96;100978.50;5090246;28;20214;-81
2021/08/16 08:15:24;;;;;;;7.97;3.47;;;;;;;17.03;70.56;100981.09;5093009;28;20215;-81
2021/08/16 08:17:52;;;;;;;6.57;2.80;;;;;;;16.81;69.63;100977.72;5092162;28;20215;-80
2021/08/16 08:20:19;;;;;;;4.87;2.90;;;;;;;16.60;70.48;100985.63;5088442;28;20226;-79
2021/08/16 08:22:46;;;;;;;5.03;2.77;;;;;;;16.49;69.99;100981.22;5088780;28;20262;-80
2021/08/16 08:25:12;;;;;;;7.37;3.13;;;;;;;16.47;68.75;100986.06;5088153;28;20209;-80
2021/08/16 08:27:39;;;;;;;7.43;2.50;;;;;;;16.31;67.58;100992.44;5088786;28;20216;-81
2021/08/16 08:30:07;;;;;;;6.57;2.87;;;;;;;16.27;68.03;100994.03;5089589;28;20209;-81
2021/08/16 08:32:33;;;;;;;7.80;3.40;;;;;;;16.24;68.64;100999.91;5091655;28;20243;-81
2021/08/16 08:35:01;;;;;;;9.37;3.33;;;;;;;16.35;68.55;100990.84;5091010;28;20291;-81
2021/08/16 08:37:28;;;;;;;6.97;3.07;;;;;;;16.39;68.71;100995.47;5094937;28;20205;-82
2021/08/16 08:39:55;;;;;;;5.20;3.10;;;;;;;16.46;68.17;101000.63;5093554;28;20209;-80
2021/08/16 08:42:22;;;;;;;7.83;3.10;;;;;;;16.33;68.42;101015.38;5093898;28;20265;-83
2021/08/16 08:44:49;;;;;;;8.83;3.43;;;;;;;16.37;69.43;101005.69;5091487;28;20245;-82
2021/08/16 08:47:15;;;;;;;6.50;3.60;;;;;;;16.57;69.62;101004.22;5091305;28;20612;-79
2021/08/16 08:49:42;;;;;;;9.10;3.60;;;;;;;16.58;70.75;101009.34;5092476;28;20238;-80
2021/08/16 08:52:10;;;;;;;10.20;3.70;;;;;;;16.48;71.76;101009.28;5093239;28;20240;-81
2021/08/16 08:54:36;;;;;;;9.03;3.50;;;;;;;16.37;70.11;101004.88;5093279;28;20205;-83
2021/08/16 08:57:04;;;;;;;8.03;3.53;;;;;;;16.31;69.43;101014.00;5093099;28;20281;-83
2021/08/16 08:59:30;;;;;;;6.50;3.57;;;;;;;16.31;69.83;100985.16;5092419;28;20291;-81
2021/08/16 09:01:58;;;;;;;8.07;3.50;;;;;;;16.50;70.32;101020.63;5091602;28;20205;-82
2021/08/16 09:04:26;;;;;;;9.83;3.97;;;;;;;16.74;69.52;101019.22;5097841;28;20232;-80
2021/08/16 09:06:52;;;;;;;9.27;3.50;;;;;;;17.14;68.28;101020.53;5097036;28;20723;-80
2021/08/16 09:09:20;;;;;;;6.10;2.93;;;;;;;17.93;65.86;101019.53;5090092;28;20587;-82
2021/08/16 09:11:50;;;;;;;8.10;3.30;;;;;;;18.49;63.68;101020.38;5097567;28;20273;-82
2021/08/16 09:14:18;;;;;;;10.73;3.77;;;;;;;18.50;63.03;101032.81;5098745;28;20216;-83
2021/08/16 09:16:46;;;;;;;8.63;3.77;;;;;;;18.12;64.98;101020.63;5095285;28;20568;-83
2021/08/16 09:19:15;;;;;;;12.10;4.13;;;;;;;17.75;64.80;101010.00;5097115;28;20422;-82
2021/08/16 09:21:44;;;;;;;7.07;3.53;;;;;;;17.50;64.48;101031.50;5092159;28;20646;-82
2021/08/16 09:24:11;;;;;;;7.27;3.60;;;;;;;17.62;65.02;101032.91;5093816;28;20227;-85
2021/08/16 09:26:40;;;;;;;8.73;4.20;;;;;;;17.57;65.87;101032.09;5092839;28;20215;-85
2021/08/16 09:29:12;;;;;;;11.00;4.37;;;;;;;17.94;65.42;101031.97;5094460;28;20605;-82
2021/08/16 09:31:38;;;;;;;6.83;3.70;;;;;;;18.41;64.81;101034.44;5092305;28;20566;-84
2021/08/16 09:34:06;;;;;;;6.13;2.93;;;;;;;18.19;63.33;101033.91;5099203;28;20317;-84
2021/08/16 09:36:38;;;;;;;7.47;3.80;;;;;;;17.52;64.84;101048.25;5092470;28;20207;-84
2021/08/16 09:39:05;;;;;;;3.63;1.87;;;;;;;16.71;66.90;101051.31;5092598;28;20217;-85
2021/08/16 09:41:31;;;;;;;2.63;1.17;;;;;;;16.31;69.39;101065.22;5096374;28;20213;-84
2021/08/16 09:44:17;;;;;;;3.30;1.20;;;;;;;16.12;70.70;101062.06;5094340;28;20221;-83
2021/08/16 09:46:43;;;;;;;2.17;1.40;;;;;;;16.35;71.86;101071.72;5096761;28;20566;-83
2021/08/16 09:49:10;;;;;;;5.87;2.00;;;;;;;16.20;72.46;101088.56;5096724;28;20231;-84
2021/08/16 09:51:37;;;;;;;3.00;1.50;;;;;;;16.03;74.52;101085.16;5097798;28;20241;-82
2021/08/16 09:54:04;;;;;;;4.80;1.77;;;;;;;16.33;73.52;101085.47;5094763;28;20233;-84
2021/08/16 09:56:31;;;;;;;4.63;2.07;;;;;;;16.25;72.06;101087.81;5095070;28;20668;-84
2021/08/16 09:58:57;;;;;;;5.30;2.30;;;;;;;15.98;73.82;101088.59;5092650;28;20244;-85
2021/08/16 10:01:25;;;;;;;4.00;2.10;;;;;;;16.13;73.31;101075.31;5097048;28;20205;-85
2021/08/16 10:03:51;;;;;;;6.60;1.93;;;;;;;16.21;71.95;101079.41;5093521;28;20214;-84
2021/08/16 10:06:19;;;;;;;6.13;2.17;;;;;;;16.32;70.10;101075.75;5097919;28;20230;-84
2021/08/16 10:08:49;;;;;;;3.57;2.13;;;;;;;16.67;69.71;101072.59;5097084;28;20276;-84
2021/08/16 10:11:18;;;;;;;5.50;2.43;;;;;;;16.61;69.29;101076.28;5096733;28;20213;-86
2021/08/16 10:13:48;;;;;;;4.60;1.93;;;;;;;16.75;68.17;101088.28;5095486;28;20548;-82
2021/08/16 10:16:16;;;;;;;7.03;2.30;;;;;;;16.73;70.31;101103.94;5098848;28;20211;-83
2021/08/16 10:18:46;;;;;;;3.63;2.13;;;;;;;16.72;69.51;101098.78;5100021;28;20291;-82
2021/08/16 10:21:17;;;;;;;3.77;1.87;;;;;;;16.73;70.32;101097.72;5100603;28;20224;-83
2021/08/16 10:23:49;;;;;;;3.40;1.90;;;;;;;16.66;69.83;101100.63;5097155;28;20206;-82
2021/08/16 10:26:25;;;;;;;5.43;1.67;;;;;;;16.50;70.25;101106.94;5096404;28;20206;-82
2021/08/16 10:28:54;;;;;;;5.53;2.40;;;;;;;16.54;70.71;101108.06;5096600;28;20258;-83
2021/08/16 10:31:26;;;;;;;5.30;2.30;;;;;;;16.99;69.60;101117.63;5096349;28;20691;-81
2021/08/16 10:33:54;;;;;;;7.70;3.20;;;;;;;16.87;69.37;101117.81;5093807;28;20255;-82
2021/08/16 10:36:21;;;;;;;8.60;3.00;;;;;;;16.82;69.23;101115.06;5092176;28;20237;-83
2021/08/16 10:38:48;;;;;;;7.90;3.10;;;;;;;16.91;69.85;101123.53;5094183;28;20199;-83
2021/08/16 10:41:23;;;;;;;13.50;2.80;;;;;;;16.56;69.98;101124.00;5096992;28;20213;-82
2021/08/16 10:43:50;;;;;;;10.53;3.77;;;;;;;15.73;72.29;101145.69;5096300;28;20225;-80
2021/08/16 10:46:21;;;;;;;10.23;3.77;;;;;;;14.76;78.85;101158.72;5092766;28;20260;-80
2021/08/16 10:48:47;;;;;;;13.37;4.20;;;;;;;14.36;81.52;101162.28;5092905;28;20249;-80
2021/08/16 10:51:15;;;;;;;10.27;2.87;;;;;;;14.49;81.31;101153.94;5088397;28;20629;-81
2021/08/16 10:53:47;;;;;;;8.83;3.67;;;;;;;14.88;81.54;101160.28;5090234;28;20242;-80
2021/08/16 10:56:17;;;;;;;12.20;3.67;;;;;;;15.27;80.25;101160.38;5092958;28;20206;-82
2021/08/16 10:58:43;;;;;;;11.40;4.40;;;;;;;15.56;80.00;101151.09;5092840;28;20236;-80
2021/08/16 11:01:10;;;;;;;7.13;3.50;;;;;;;15.64;76.96;101159.84;5097495;28;20599;-81
2021/08/16 11:03:36;;;;;;;14.30;5.27;;;;;;;15.89;73.80;101163.69;5093456;28;20542;-82
2021/08/16 11:06:05;;;;;;;9.97;3.40;;;;;;;16.15;73.92;101158.63;5089444;28;20217;-82
2021/08/16 11:08:33;;;;;;;9.13;3.87;;;;;;;16.14;74.10;101151.59;5094195;28;20212;-84
2021/08/16 11:11:06;;;;;;;8.97;3.40;;;;;;;16.45;73.88;101161.63;5094595;28;20235;-83
2021/08/16 11:13:33;;;;;;;9.60;4.00;;;;;;;16.73;72.09;101166.00;5092069;28;20217;-82
2021/08/16 11:16:06;;;;;;;14.53;3.90;;;;;;;16.72;72.52;101171.66;5091743;28;20235;-83
2021/08/16 11:18:33;;;;;;;11.13;4.20;;;;;;;16.57;70.83;101171.47;5090735;28;20288;-83
2021/08/16 11:21:01;;;;;;;13.03;4.13;;;;;;;16.43;70.01;101168.38;5093953;28;20222;-83